createdAt,value
2019-06-07T00:02:00.514Z,4.90
2019-06-07T00:04:28.200Z,3.60
2019-06-07T00:06:55.737Z,11.10
2019-06-07T00:09:24.289Z,4.47
2019-06-07T00:11:51.624Z,3.53
2019-06-07T00:14:21.144Z,3.87
2019-06-07T00:16:48.315Z,6.70
2019-06-07T00:19:16.250Z,5.50
2019-06-07T00:24:15.950Z,6.37
2019-06-07T00:26:57.918Z,9.03
2019-06-07T00:29:15.440Z,4.30
2019-06-07T00:31:41.498Z,3.13
2019-06-07T00:34:10.720Z,3.00
2019-06-07T00:36:38.318Z,3.33
2019-06-07T00:39:07.766Z,4.67
2019-06-07T00:41:35.192Z,3.63
2019-06-07T00:44:02.730Z,6.77
2019-06-07T00:46:30.126Z,5.00
2019-06-07T00:48:57.533Z,3.90
2019-06-07T00:51:25.196Z,6.43
2019-06-07T00:53:52.595Z,4.83
2019-06-07T00:56:21.725Z,4.20
2019-06-07T00:59:09.676Z,6.83
2019-06-07T01:01:22.155Z,5.80
2019-06-07T01:03:47.856Z,4.43
2019-06-07T01:06:17.490Z,5.17
2019-06-07T01:08:44.844Z,6.13
2019-06-07T01:11:13.601Z,5.70
2019-06-07T01:13:41.406Z,5.30
2019-06-07T01:16:08.768Z,4.00
2019-06-07T01:18:42.876Z,7.10
2019-06-07T01:21:05.592Z,5.50
2019-06-07T01:24:11.040Z,7.10
2019-06-07T01:26:26.746Z,5.57
2019-06-07T01:28:52.217Z,5.47
2019-06-07T01:31:21.158Z,7.27
2019-06-07T01:33:51.243Z,5.37
2019-06-07T01:36:19.570Z,6.27
2019-06-07T01:38:47.290Z,6.73
2019-06-07T01:41:14.743Z,6.53
2019-06-07T01:43:42.145Z,6.07
2019-06-07T01:46:09.542Z,10.43
2019-06-07T01:48:48.971Z,5.93
2019-06-07T01:51:06.218Z,7.57
2019-06-07T01:53:33.626Z,6.70
2019-06-07T01:56:01.415Z,8.93
2019-06-07T01:58:29.255Z,8.60
2019-06-07T02:00:56.698Z,7.27
2019-06-07T02:03:26.945Z,5.40
2019-06-07T02:05:53.360Z,8.80
2019-06-07T02:08:22.194Z,10.93
2019-06-07T02:10:50.185Z,6.10
2019-06-07T02:13:18.529Z,6.80
2019-06-07T02:15:46.170Z,5.50
2019-06-07T02:18:13.626Z,5.10
2019-06-07T02:20:41.026Z,7.03
2019-06-07T02:23:08.459Z,8.43
2019-06-07T02:25:45.497Z,9.70
2019-06-07T02:28:27.363Z,10.93
2019-06-07T02:30:44.756Z,8.40
2019-06-07T02:33:05.255Z,7.40
2019-06-07T02:35:39.047Z,9.83
2019-06-07T02:38:01.871Z,7.70
2019-06-07T02:40:36.013Z,13.40
2019-06-07T02:42:58.618Z,9.30
2019-06-07T02:45:26.946Z,6.80
2019-06-07T02:47:55.514Z,7.60
2019-06-07T02:50:23.201Z,8.90
2019-06-07T02:52:50.718Z,8.17
2019-06-07T02:55:18.187Z,8.50
2019-06-07T02:57:45.666Z,9.37
2019-06-07T03:00:41.921Z,10.60
2019-06-07T03:02:44.669Z,8.00
2019-06-07T03:05:13.462Z,15.83
2019-06-07T03:07:45.071Z,11.50
2019-06-07T03:10:11.895Z,7.50
2019-06-07T03:12:41.640Z,10.53
2019-06-07T03:15:09.083Z,9.40
2019-06-07T03:17:48.888Z,13.03
2019-06-07T03:20:17.758Z,10.33
2019-06-07T03:22:45.172Z,7.53
2019-06-07T03:25:12.819Z,9.33
2019-06-07T03:27:49.553Z,9.03
2019-06-07T03:30:36.170Z,10.10
2019-06-07T03:32:47.228Z,12.80
2019-06-07T03:35:09.572Z,9.77
2019-06-07T03:37:40.722Z,10.30
2019-06-07T03:40:06.412Z,14.87
2019-06-07T03:42:34.872Z,6.83
2019-06-07T03:45:04.078Z,9.30
2019-06-07T03:47:33.494Z,9.60
2019-06-07T03:50:00.757Z,9.70
2019-06-07T03:52:31.587Z,9.30
2019-06-07T03:54:59.197Z,10.33
2019-06-07T03:57:28.652Z,8.87
2019-06-07T03:59:55.829Z,10.80
2019-06-07T04:02:23.304Z,10.90
2019-06-07T04:04:50.714Z,11.10
2019-06-07T04:07:18.125Z,11.10
2019-06-07T04:09:45.643Z,10.47
2019-06-07T04:12:13.048Z,12.73
2019-06-07T04:14:42.555Z,11.83
2019-06-07T04:17:09.980Z,10.97
2019-06-07T04:19:42.104Z,8.87
2019-06-07T04:22:06.587Z,11.20
2019-06-07T04:24:38.526Z,7.77
2019-06-07T04:27:03.431Z,9.53
2019-06-07T04:29:33.947Z,11.47
2019-06-07T04:32:01.122Z,8.37
2019-06-07T04:34:29.328Z,8.13
2019-06-07T04:37:00.538Z,18.13
2019-06-07T04:39:32.098Z,7.90
2019-06-07T04:41:59.664Z,13.90
2019-06-07T04:44:28.847Z,8.30
2019-06-07T04:46:58.371Z,8.07
2019-06-07T04:49:26.255Z,8.40
2019-06-07T04:51:55.474Z,7.87
2019-06-07T04:54:22.880Z,14.53
2019-06-07T04:56:50.302Z,12.57
2019-06-07T05:00:00.180Z,9.40
2019-06-07T05:01:46.952Z,11.97
2019-06-07T05:04:14.359Z,12.43
2019-06-07T05:06:42.484Z,12.67
2019-06-07T05:09:10.161Z,10.20
2019-06-07T05:11:39.335Z,7.80
2019-06-07T05:14:06.800Z,8.33
2019-06-07T05:16:36.632Z,6.60
2019-06-07T05:19:03.436Z,8.27
2019-06-07T05:21:51.525Z,7.30
2019-06-07T05:24:07.407Z,10.13
2019-06-07T05:26:30.486Z,8.90
2019-06-07T05:29:00.162Z,8.37
2019-06-07T05:31:27.970Z,8.10
2019-06-07T05:33:55.816Z,8.10
2019-06-07T05:36:23.682Z,8.57
2019-06-07T05:38:51.080Z,7.00
2019-06-07T05:41:18.475Z,29.37
2019-06-07T05:44:00.261Z,6.73
2019-06-07T05:46:15.248Z,7.13
2019-06-07T05:48:43.918Z,6.33
2019-06-07T05:51:11.606Z,6.30
2019-06-07T05:53:58.867Z,5.70
2019-06-07T05:56:26.794Z,6.53
2019-06-07T05:58:54.213Z,5.50
2019-06-07T06:03:50.890Z,6.33
2019-06-07T06:06:18.930Z,7.13
2019-06-07T06:08:47.944Z,6.93
2019-06-07T06:11:16.248Z,6.40
2019-06-07T06:14:05.672Z,6.80
2019-06-07T06:16:12.876Z,9.90
2019-06-07T06:18:41.321Z,6.00
2019-06-07T06:21:19.375Z,6.20
2019-06-07T06:23:40.516Z,5.00
2019-06-07T06:26:08.320Z,5.07
2019-06-07T06:28:37.188Z,5.03
2019-06-07T06:31:04.912Z,9.43
2019-06-07T06:33:34.781Z,7.87
2019-06-07T06:36:01.584Z,5.60
2019-06-07T06:38:28.984Z,4.77
2019-06-07T06:41:14.362Z,5.53
2019-06-07T06:43:25.772Z,4.80
2019-06-07T06:45:53.192Z,5.50
2019-06-07T06:48:21.868Z,6.10
2019-06-07T06:50:52.204Z,5.10
2019-06-07T06:53:18.460Z,8.10
2019-06-07T06:55:48.486Z,5.13
2019-06-07T06:58:15.792Z,4.80
2019-06-07T07:00:53.580Z,4.80
2019-06-07T07:05:48.638Z,4.83
2019-06-07T07:08:14.356Z,3.83
2019-06-07T07:10:43.382Z,4.93
2019-06-07T07:13:10.848Z,5.60
2019-06-07T07:15:38.276Z,5.30
2019-06-07T07:18:08.733Z,6.07
2019-06-07T07:20:35.124Z,4.10
2019-06-07T07:23:02.626Z,5.83
2019-06-07T07:25:30.068Z,4.40
2019-06-07T07:27:57.464Z,5.27
2019-06-07T07:30:39.829Z,4.60
2019-06-07T07:33:07.351Z,5.67
2019-06-07T07:35:34.690Z,6.53
2019-06-07T07:38:02.284Z,5.43
2019-06-07T07:40:57.238Z,5.00
2019-06-07T07:42:58.907Z,8.03
2019-06-07T07:45:26.392Z,4.63
2019-06-07T07:48:08.266Z,11.07
2019-06-07T07:50:22.996Z,5.43
2019-06-07T07:52:55.959Z,5.50
2019-06-07T07:55:20.543Z,6.20
2019-06-07T07:57:49.455Z,5.40
2019-06-07T08:00:49.446Z,4.80
2019-06-07T08:02:48.786Z,5.23
2019-06-07T08:05:23.498Z,5.93
2019-06-07T08:07:49.979Z,4.53
2019-06-07T08:10:15.184Z,5.00
2019-06-07T08:13:00.326Z,5.30
2019-06-07T08:15:12.232Z,5.07
2019-06-07T08:17:39.644Z,6.80
2019-06-07T08:20:07.597Z,5.10
2019-06-07T08:22:35.036Z,4.57
2019-06-07T08:25:04.475Z,5.40
2019-06-07T08:27:31.800Z,4.73
2019-06-07T08:30:25.381Z,4.60
2019-06-07T08:32:28.615Z,5.20
2019-06-07T08:35:01.698Z,5.30
2019-06-07T08:38:13.364Z,4.90
2019-06-07T08:39:56.732Z,4.70
2019-06-07T08:42:36.432Z,6.07
2019-06-07T08:44:54.334Z,4.77
2019-06-07T08:47:22.461Z,4.70
2019-06-07T08:49:50.664Z,13.63
2019-06-07T08:52:19.175Z,5.70
2019-06-07T08:54:47.150Z,8.60
2019-06-07T08:57:21.172Z,6.20
2019-06-07T08:59:43.774Z,7.27
2019-06-07T09:02:23.210Z,7.57
2019-06-07T09:04:40.427Z,4.20
2019-06-07T09:07:18.773Z,4.90
2019-06-07T09:09:37.383Z,5.40
2019-06-07T09:12:10.174Z,8.50
2019-06-07T09:14:34.067Z,4.87
2019-06-07T09:17:11.021Z,5.83
2019-06-07T09:19:31.235Z,5.20
2019-06-07T09:22:04.697Z,4.83
2019-06-07T09:24:28.290Z,6.20
2019-06-07T09:26:57.643Z,4.67
2019-06-07T09:29:25.222Z,7.70
2019-06-07T09:31:53.822Z,7.57
2019-06-07T09:34:21.385Z,4.20
2019-06-07T09:36:49.010Z,4.97
2019-06-07T09:39:18.425Z,4.77
2019-06-07T09:41:49.955Z,5.53
2019-06-07T09:44:25.084Z,9.20
2019-06-07T09:46:44.359Z,7.53
2019-06-07T09:49:21.110Z,5.35
2019-06-07T09:51:40.997Z,4.97
2019-06-07T09:54:11.201Z,4.70
2019-06-07T09:56:38.720Z,6.73
2019-06-07T09:59:09.124Z,5.97
2019-06-07T10:01:35.572Z,5.50
2019-06-07T10:04:08.240Z,5.30
2019-06-07T10:06:32.210Z,4.97
2019-06-07T10:11:28.871Z,7.00
2019-06-07T10:13:56.276Z,4.80
2019-06-07T10:16:24.334Z,10.90
2019-06-07T10:18:51.746Z,8.23
2019-06-07T10:21:20.342Z,7.73
2019-06-07T10:23:47.704Z,7.47
2019-06-07T10:26:15.115Z,4.27
2019-06-07T10:28:42.548Z,4.97
2019-06-07T10:31:11.466Z,7.07
2019-06-07T10:33:39.036Z,5.73
2019-06-07T10:36:06.687Z,9.00
2019-06-07T10:38:34.486Z,11.77
2019-06-07T10:41:02.877Z,6.60
2019-06-07T10:43:30.328Z,5.00
2019-06-07T10:45:57.985Z,4.60
2019-06-07T10:48:25.391Z,5.50
2019-06-07T10:50:52.832Z,4.03
2019-06-07T10:53:20.671Z,8.70
2019-06-07T10:55:48.418Z,5.07
2019-06-07T10:58:15.845Z,5.23
2019-06-07T11:00:43.298Z,4.40
2019-06-07T11:03:11.812Z,5.20
2019-06-07T11:05:39.369Z,7.10
2019-06-07T11:08:07.947Z,7.60
2019-06-07T11:10:35.528Z,4.60
2019-06-07T11:13:04.081Z,4.10
2019-06-07T11:15:31.969Z,7.13
2019-06-07T11:17:59.364Z,7.40
2019-06-07T11:20:26.810Z,4.70
2019-06-07T11:22:56.178Z,4.53
2019-06-07T11:25:23.607Z,4.90
2019-06-07T11:27:51.021Z,4.30
2019-06-07T11:30:18.794Z,4.60
2019-06-07T11:32:46.336Z,4.33
2019-06-07T11:35:15.514Z,7.77
2019-06-07T11:37:43.100Z,4.83
2019-06-07T11:40:27.768Z,4.50
2019-06-07T11:42:40.380Z,5.93
2019-06-07T11:45:10.498Z,8.70
2019-06-07T11:47:38.704Z,4.43
2019-06-07T11:50:07.283Z,4.33
2019-06-07T11:52:34.833Z,4.63
2019-06-07T11:55:02.705Z,5.50
2019-06-07T11:57:30.593Z,7.63
2019-06-07T11:59:58.025Z,4.80
2019-06-07T12:02:25.448Z,4.90
2019-06-07T12:04:52.871Z,7.43
2019-06-07T12:07:20.437Z,4.40
2019-06-07T12:09:56.254Z,4.80
2019-06-07T12:12:17.052Z,10.50
2019-06-07T12:14:44.501Z,5.23
2019-06-07T12:17:13.320Z,4.33
2019-06-07T12:19:40.856Z,4.13
2019-06-07T12:22:09.770Z,7.50
2019-06-07T12:24:37.474Z,5.57
2019-06-07T12:27:04.932Z,4.60
2019-06-07T12:29:34.002Z,4.50
2019-06-07T12:32:01.584Z,4.40
2019-06-07T12:34:28.910Z,4.80
2019-06-07T12:36:56.421Z,4.60
2019-06-07T12:39:23.798Z,10.40
2019-06-07T12:41:51.189Z,4.10
2019-06-07T12:44:18.888Z,4.63
2019-06-07T12:46:46.370Z,6.10
2019-06-07T12:49:15.531Z,4.50
2019-06-07T12:51:43.545Z,4.50
2019-06-07T12:54:10.948Z,4.80
2019-06-07T12:56:38.986Z,5.00
2019-06-07T12:59:06.472Z,4.53
2019-06-07T13:01:33.894Z,7.33
2019-06-07T13:04:01.377Z,5.30
2019-06-07T13:06:29.016Z,4.90
2019-06-07T13:08:56.432Z,5.33
2019-06-07T13:11:28.863Z,3.63
2019-06-07T13:13:53.080Z,3.97
2019-06-07T13:16:20.480Z,4.60
2019-06-07T13:18:47.903Z,5.00
2019-06-07T13:21:18.182Z,3.73
2019-06-07T13:23:44.673Z,3.93
2019-06-07T13:26:12.080Z,4.90
2019-06-07T13:28:39.664Z,3.87
2019-06-07T13:31:07.071Z,4.17
2019-06-07T13:33:38.653Z,6.40
2019-06-07T13:36:04.090Z,4.33
2019-06-07T13:38:31.498Z,4.13
2019-06-07T13:40:58.911Z,4.30
2019-06-07T13:43:27.992Z,4.63
2019-06-07T13:45:55.595Z,6.47
2019-06-07T13:48:23.358Z,4.80
2019-06-07T13:50:51.222Z,3.90
2019-06-07T13:53:18.994Z,3.67
2019-06-07T13:55:46.560Z,4.03
2019-06-07T13:58:14.193Z,4.13
2019-06-07T14:00:41.909Z,3.67
2019-06-07T14:03:09.320Z,4.80
2019-06-07T14:05:36.842Z,3.17
2019-06-07T14:08:04.291Z,4.13
2019-06-07T14:10:31.709Z,3.93
2019-06-07T14:12:59.168Z,2.97
2019-06-07T14:15:26.596Z,3.33
2019-06-07T14:17:54.000Z,3.10
2019-06-07T14:20:26.702Z,3.50
2019-06-07T14:22:54.393Z,3.83
2019-06-07T14:25:21.570Z,4.43
2019-06-07T14:27:49.192Z,3.43
2019-06-07T14:30:18.288Z,3.33
2019-06-07T14:32:47.530Z,3.33
2019-06-07T14:35:15.496Z,3.53
2019-06-07T14:37:42.932Z,3.50
2019-06-07T14:40:10.748Z,3.10
2019-06-07T14:42:38.672Z,2.90
2019-06-07T14:45:06.822Z,3.50
2019-06-07T14:47:34.340Z,2.70
2019-06-07T14:50:02.074Z,3.10
2019-06-07T14:52:30.734Z,2.80
2019-06-07T14:54:58.223Z,3.00
2019-06-07T14:57:26.924Z,4.07
2019-06-07T14:59:54.653Z,2.83
2019-06-07T15:02:22.066Z,3.10
2019-06-07T15:04:49.520Z,3.40
2019-06-07T15:07:16.946Z,3.20
2019-06-07T15:09:44.381Z,3.07
2019-06-07T15:12:24.713Z,2.90
2019-06-07T15:14:41.229Z,3.97
2019-06-07T15:17:08.636Z,2.93
2019-06-07T15:19:36.478Z,3.37
2019-06-07T15:22:03.960Z,3.27
2019-06-07T15:24:36.159Z,4.33
2019-06-07T15:27:02.512Z,3.67
2019-06-07T15:29:29.938Z,4.70
2019-06-07T15:31:57.356Z,3.60
2019-06-07T15:34:25.008Z,3.27
2019-06-07T15:36:52.441Z,3.57
2019-06-07T15:39:19.853Z,3.30
2019-06-07T15:41:47.353Z,3.23
2019-06-07T15:44:14.764Z,2.67
2019-06-07T15:46:42.208Z,3.37
2019-06-07T15:49:09.778Z,7.90
2019-06-07T15:51:38.513Z,5.30
2019-06-07T15:54:06.137Z,5.60
2019-06-07T15:56:34.668Z,3.40
2019-06-07T15:59:02.400Z,3.33
2019-06-07T16:01:31.171Z,3.13
2019-06-07T16:04:18.137Z,5.80
2019-06-07T16:06:45.570Z,2.97
2019-06-07T16:09:14.802Z,2.93
2019-06-07T16:11:43.702Z,3.03
2019-06-07T16:14:11.742Z,3.37
2019-06-07T16:16:39.167Z,2.87
2019-06-07T16:19:06.848Z,2.90
2019-06-07T16:21:35.278Z,3.43
2019-06-07T16:24:02.789Z,2.53
2019-06-07T16:26:30.257Z,3.33
2019-06-07T16:28:57.976Z,2.80
2019-06-07T16:31:25.392Z,2.93
2019-06-07T16:33:53.174Z,3.20
2019-06-07T16:36:20.578Z,3.10
2019-06-07T16:38:48.610Z,3.30
2019-06-07T16:41:18.122Z,8.27
2019-06-07T16:43:45.540Z,4.13
2019-06-07T16:46:12.961Z,3.63
2019-06-07T16:48:40.819Z,3.83
2019-06-07T16:51:08.535Z,3.80
2019-06-07T16:53:36.166Z,3.63
2019-06-07T16:56:04.582Z,3.70
2019-06-07T16:58:33.785Z,3.40
2019-06-07T17:01:01.194Z,3.80
2019-06-07T17:03:28.912Z,3.30
2019-06-07T17:05:56.525Z,3.43
2019-06-07T17:08:24.126Z,2.90
2019-06-07T17:10:52.258Z,3.80
2019-06-07T17:13:32.419Z,3.73
2019-06-07T17:15:49.044Z,3.43
2019-06-07T17:18:16.748Z,3.10
2019-06-07T17:20:45.311Z,3.63
2019-06-07T17:23:12.811Z,3.07
2019-06-07T17:25:41.344Z,3.33
2019-06-07T17:28:08.896Z,2.97
2019-06-07T17:30:36.370Z,3.13
2019-06-07T17:33:04.248Z,3.97
2019-06-07T17:35:31.636Z,3.57
2019-06-07T17:38:00.213Z,4.60
2019-06-07T17:40:27.659Z,4.00
2019-06-07T17:42:55.091Z,4.30
2019-06-07T17:45:22.722Z,4.33
2019-06-07T17:47:50.354Z,4.00
2019-06-07T17:50:18.160Z,4.53
2019-06-07T17:52:45.929Z,5.30
2019-06-07T17:55:14.541Z,4.30
2019-06-07T17:57:42.268Z,5.00
2019-06-07T18:02:40.660Z,4.60
2019-06-07T18:05:08.600Z,4.70
2019-06-07T18:07:36.340Z,9.10
2019-06-07T18:10:05.332Z,5.60
2019-06-07T18:12:32.755Z,5.27
2019-06-07T18:15:00.208Z,4.27
2019-06-07T18:17:34.561Z,4.57
2019-06-07T18:19:57.108Z,4.97
2019-06-07T18:22:24.529Z,5.17
2019-06-07T18:24:53.161Z,6.10
2019-06-07T18:27:21.146Z,5.40
2019-06-07T18:29:48.609Z,5.33
2019-06-07T18:32:16.410Z,4.50
2019-06-07T18:34:43.943Z,4.17
2019-06-07T18:37:11.371Z,8.10
2019-06-07T18:39:38.920Z,6.40
2019-06-07T18:42:06.320Z,6.53
2019-06-07T18:44:33.732Z,7.40
2019-06-07T18:47:01.212Z,7.50
2019-06-07T18:49:28.631Z,5.40
2019-06-07T18:52:15.302Z,5.90
2019-06-07T18:54:42.714Z,6.67
2019-06-07T18:57:12.317Z,6.53
2019-06-07T18:59:39.357Z,9.43
2019-06-07T19:02:07.076Z,5.10
2019-06-07T19:04:34.481Z,5.47
2019-06-07T19:07:01.917Z,5.73
2019-06-07T19:09:29.548Z,5.17
2019-06-07T19:11:56.955Z,4.70
2019-06-07T19:14:36.749Z,6.37
2019-06-07T19:16:53.999Z,4.70
2019-06-07T19:19:21.412Z,5.53
2019-06-07T19:21:49.894Z,8.33
2019-06-07T19:24:17.328Z,6.80
2019-06-07T19:26:44.731Z,5.87
2019-06-07T19:29:12.512Z,6.80
2019-06-07T19:31:39.915Z,5.80
2019-06-07T19:34:07.331Z,8.47
2019-06-07T19:36:47.977Z,5.20
2019-06-07T19:39:05.646Z,17.40
2019-06-07T19:41:33.051Z,6.30
2019-06-07T19:44:00.854Z,8.00
2019-06-07T19:46:28.257Z,6.10
2019-06-07T19:48:56.529Z,6.27
2019-06-07T19:51:24.484Z,6.33
2019-06-07T19:53:52.903Z,10.93
2019-06-07T19:56:20.420Z,8.50
2019-06-07T19:58:47.907Z,10.73
2019-06-07T20:01:15.332Z,7.37
2019-06-07T20:03:42.728Z,8.50
2019-06-07T20:06:10.591Z,13.50
2019-06-07T20:08:38.364Z,10.57
2019-06-07T20:11:05.793Z,11.90
2019-06-07T20:13:33.467Z,8.77
2019-06-07T20:16:00.956Z,8.00
2019-06-07T20:18:28.340Z,11.00
2019-06-07T20:20:58.536Z,7.10
2019-06-07T20:23:28.050Z,8.60
2019-06-07T20:25:55.344Z,10.73
2019-06-07T20:28:22.972Z,7.70
2019-06-07T20:30:52.269Z,15.77
2019-06-07T20:33:19.828Z,12.17
2019-06-07T20:35:47.578Z,9.83
2019-06-07T20:38:14.995Z,10.20
2019-06-07T20:40:42.408Z,9.73
2019-06-07T20:43:10.080Z,10.70
2019-06-07T20:45:37.500Z,8.03
2019-06-07T20:48:06.191Z,6.60
2019-06-07T20:50:35.845Z,6.63
2019-06-07T20:53:03.261Z,7.93
2019-06-07T20:55:30.769Z,14.73
2019-06-07T20:57:59.102Z,19.00
2019-06-07T21:00:26.681Z,14.00
2019-06-07T21:02:54.087Z,10.07
2019-06-07T21:05:22.867Z,8.57
2019-06-07T21:07:50.596Z,6.80
2019-06-07T21:10:18.269Z,18.90
2019-06-07T21:12:45.731Z,8.33
2019-06-07T21:15:14.696Z,18.17
2019-06-07T21:17:42.459Z,9.30
2019-06-07T21:20:14.003Z,7.20
2019-06-07T21:22:39.399Z,8.53
2019-06-07T21:25:07.322Z,10.07
2019-06-07T21:27:35.156Z,10.13
2019-06-07T21:30:03.407Z,10.83
2019-06-07T21:32:30.944Z,9.17
2019-06-07T21:34:58.397Z,17.07
2019-06-07T21:37:25.819Z,11.20
2019-06-07T21:39:53.235Z,8.97
2019-06-07T21:42:21.050Z,9.87
2019-06-07T21:44:48.443Z,16.70
2019-06-07T21:47:15.885Z,7.27
2019-06-07T21:49:43.744Z,10.33
2019-06-07T21:52:11.135Z,8.90
2019-06-07T21:54:40.394Z,9.60
2019-06-07T21:57:09.002Z,9.60
2019-06-07T21:59:36.487Z,9.97
2019-06-07T22:02:05.353Z,12.90
2019-06-07T22:04:35.072Z,10.20
2019-06-07T22:07:03.307Z,9.13
2019-06-07T22:09:31.064Z,12.63
2019-06-07T22:11:58.504Z,7.00
2019-06-07T22:14:25.923Z,14.60
2019-06-07T22:16:53.336Z,11.43
2019-06-07T22:19:20.864Z,12.10
2019-06-07T22:22:01.750Z,12.40
2019-06-07T22:24:18.797Z,16.40
2019-06-07T22:26:46.532Z,12.90
2019-06-07T22:29:15.748Z,14.13
2019-06-07T22:31:43.284Z,10.97
2019-06-07T22:34:10.864Z,9.50
2019-06-07T22:36:38.295Z,13.43
2019-06-07T22:39:07.538Z,15.60
2019-06-07T22:41:35.189Z,15.60
2019-06-07T22:44:02.807Z,13.17
2019-06-07T22:46:37.248Z,11.23
2019-06-07T22:48:59.625Z,16.30
2019-06-07T22:51:27.028Z,20.73
2019-06-07T22:53:54.505Z,21.10
2019-06-07T22:56:42.087Z,11.00
2019-06-07T22:59:14.093Z,12.00
2019-06-07T23:01:39.811Z,10.77
2019-06-07T23:04:08.445Z,7.53
2019-06-07T23:06:36.229Z,8.90
2019-06-07T23:09:05.523Z,8.27
2019-06-07T23:11:32.979Z,13.13
2019-06-07T23:14:00.384Z,9.73
2019-06-07T23:16:27.799Z,8.30
2019-06-07T23:18:55.382Z,12.23
2019-06-07T23:21:22.799Z,9.80
2019-06-07T23:23:50.205Z,9.57
2019-06-07T23:26:18.330Z,10.43
2019-06-07T23:28:45.766Z,18.30
2019-06-07T23:31:14.350Z,12.53
2019-06-07T23:33:42.079Z,19.20
2019-06-07T23:36:10.905Z,24.57
2019-06-07T23:38:38.435Z,11.27
2019-06-07T23:41:05.871Z,12.97
2019-06-07T23:43:33.274Z,15.47
2019-06-07T23:46:00.672Z,12.37
2019-06-07T23:48:28.392Z,14.17
2019-06-07T23:50:55.822Z,12.90
2019-06-07T23:53:23.203Z,15.10
2019-06-07T23:55:50.663Z,6.87
2019-06-07T23:58:18.608Z,15.60
